Station: Warooka

  Atmospheric Gas Attenuation - ITU Rec 676-11   --------------- db/100km ---------------
Date Time Temp RH % AH g/m3 Dew Point Wind Direction Speed kph Gust kph Barometer mB Rainfall Since 9am 24GHz 47GHz 76GHz 122GHz 134GHz 241GHz
12 09:00 11.5 76 7.85 7.4 7 1021.8 2 18.1 25.7 38.3 100.3 91.9 315.5
11 09:00 9 88 7.76 7.1 0 1016.3 9 18.0 26.0 38.9 101.9 93.3 319.9
10 09:00 12.5 81 8.91 9.4 15 1020.6 0.1 20.3 27.1 42.1 110.4 104.9 361.0
09 09:00 7.1 91 7.1 5.8 0 1023.4 0 16.7 25.8 37.4 97.7 87.0 297.5
08 09:00 6.5 80 6 3.4 2 1027.6 0 14.3 24.3 33.3 86.8 73.0 248.3
07 09:00 10.4 75 7.23 6.1 2 1032.6 0 16.8 25.4 36.8 96.0 85.8 293.5
06 09:00 11 76 7.61 7 2 1034.1 0.1 17.6 25.9 38.1 99.5 90.3 309.4
05 09:00 12.5 83 9.13 9.8 0 1032.3 0.1 20.8 27.9 43.5 114.1 108.9 375.0
04 09:00 10.7 93 9.14 9.7 4 1031.8 0.3 20.9 28.5 44.6 116.9 111.6 384.1
03 09:00 11.1 92 9.27 9.9 11 1023.8 7 21.1 28.2 44.5 116.9 112.2 386.1
02 09:00 8.9 79 6.92 5.4 4 1016.9 5 16.2 24.7 35.5 92.9 82.1 280.8
01 09:00 12.5 72 7.92 7.6 11 1009.8 0 18.2 25.0 37.6 98.5 90.8 311.6
30 09:00 11.5 64 6.61 5 22 1014.1 0.2 15.4 23.4 33.1 86.4 75.3 257.2
29 09:00 7.1 73 5.7 2.6 7 1024 0 13.7 23.5 31.7 82.6 68.3 231.9
28 09:00 9 81 7.14 6 0 1028.1 0 16.7 25.5 36.9 96.3 85.8 293.4
27 09:00 1013.1
26 09:00 10.5 93 9.02 9.5 0 1027.1 0.4 20.6 28.1 43.9 115.3 109.8 377.7
25 09:00 11.1 97 9.77 10.7 2 1021.5 0 22.2 29.0 46.6 122.4 119.1 410.4
24 09:00 9.2 97 8.66 8.8 0 1021 0.5 19.9 27.7 42.8 112.3 106.0 364.3
23 09:00 8.6 91 7.82 7.3 2 1022.1 0 18.2 26.5 39.6 103.7 95.1 326.0
22 09:00 11 87 8.71 9 11 1019.6 1 20.0 27.2 42.0 110.2 104.1 358.0
21 09:00 11 82 8.21 8.1 7 1015.2 8 18.9 26.1 39.7 104.1 96.9 332.8
20 09:00 11.5 89 9.19 9.7 4 1015.8 2 21.0 27.7 43.6 114.4 109.7 377.8
19 09:00 12.9 72 8.12 8.1 26 1017 0.1 18.6 25.5 38.5 100.9 93.5 321.1
18 09:00 10.5 75 7.28 6.2 22 1027.9 0 16.9 25.2 36.7 96.0 86.0 294.3
17 09:00 9 99 8.73 8.8 0 1032.9 0 20.1 28.3 43.8 114.8 108.3 372.2
16 09:00 13.4 89 10.35 11.7 4 1025.2 0.8 23.3 29.4 47.9 125.9 124.1 428.1
15 09:00 14.1 91 11.04 12.6 15 1022.1 12 24.8 30.3 50.3 132.4 132.5 457.5
13 09:00 12.6 80 8.85 9.3 30 1006.3 2 20.2 26.4 41.1 108.0 102.7 353.5
12 09:00 8 71 5.87 3.1 2 1019.8 0 14.0 23.4 31.9 83.1 69.4 236.1
11 09:00 7.3 94 7.43 6.4 2 1025.3 0 17.4 26.3 38.7 101.4 91.5 313.2
10 09:00 7.4 78 6.21 3.9 0 1027.7 0 14.7 24.4 33.8 88.0 74.9 255.3
09 09:00 6.1 82 5.99 3.2 2 1030.8 6 14.3 24.5 33.6 87.4 73.5 249.8
05 09:00 8.5 93 7.94 7.4 0 1030.5 0 18.4 27.0 40.5 106.1 97.5 334.6
04 09:00 7.9 89 7.31 6.2 0 1034 0 17.1 26.3 38.3 100.2 89.8 307.2
03 09:00 12.5 73 8.03 7.8 2 1033.1 0.4 18.4 26.1 39.0 102.1 94.0 322.8
02 09:00 12.3 96 10.43 11.7 2 1024.8 2 23.6 29.9 48.9 128.6 127.0 438.2
01 09:00 10.9 69 6.86 5.5 19 1018.7 4 16.0 24.1 34.5 90.1 79.4 271.4
31 09:00 11 82 8.21 8.1 2 1015.2 8 18.9 26.1 39.7 104.1 96.9 332.8
30 09:00 15.1 59 7.61 7.2 30 1013.3 0 17.4 24.0 35.3 92.5 84.2 288.8
29 09:00 11.3 86 8.77 9.1 7 1024.9 0 20.1 27.4 42.3 111.0 105.0 361.0
28 09:00 12.4 89 9.73 10.7 2 1023.2 2 22.1 28.6 45.7 120.1 116.7 402.1
27 09:00 14.1 88 10.68 12.1 19 1019.1 0.8 24.0 29.5 48.6 127.8 127.0 438.5
26 09:00 9.5 71 6.46 4.6 7 1019.2 0 15.2 23.9 33.5 87.6 75.6 258.1
25 09:00 9.7 74 6.82 5.3 2 1025.4 0.6 16.0 24.6 35.1 91.7 80.6 275.3
24 09:00 13.6 72 8.47 8.7 22 1027.5 0.2 19.3 26.3 40.0 104.8 98.1 337.2
23 09:00 13.5 82 9.59 10.6 19 1024.4 2 21.7 28.1 44.5 117.0 113.2 390.0
22 09:00 11.5 94 9.71 10.5 7 1025.2 0.4 22.1 28.9 46.3 121.5 118.0 406.4
21 09:00 11.8 55 5.79 3 11 1024.9 5 13.7 22.5 30.3 78.8 65.5 222.7
20 09:00 11.6 69 7.17 6.1 2 1019.2 9 16.6 24.4 35.4 92.6 82.7 283.2
19 09:00 15.3 81 10.58 12 7 1017.4 0 23.7 28.9 47.3 124.5 123.5 426.3
18 09:00 13.4 81 9.42 10.3 0 1025.6 0 21.3 27.8 43.9 115.3 111.1 382.6
17 09:00 12.5 74 8.14 8.1 2 1030.3 0 18.7 26.2 39.3 103.0 95.3 327.2
16 09:00 10.7 73 7.17 6 2 1028.8 0 16.7 25.0 36.2 94.6 84.4 288.7
15 09:00 9.9 74 6.91 5.6 2 1030.9 0 16.1 24.9 35.6 93.0 81.9 280.0
14 09:00 12 73 7.78 7.3 0 1031.2 0.1 17.9 25.8 38.2 99.8 91.1 312.6
13 09:00 11.5 72 7.44 6.7 4 1028.6 2 17.2 25.3 36.9 96.5 87.0 298.2
12 09:00 14.8 65 8.23 8.3 4 1022.7 0.1 18.7 25.4 38.3 100.2 93.1 319.9
11 09:00 12.5 87 9.57 10.4 2 1029.3 12 21.7 28.5 45.3 118.8 114.8 395.6
10 09:00 12.2 87 9.39 10.1 0 1027.9 3 21.3 28.3 44.6 117.0 112.6 387.8
09 09:00 11.5 70 7.23 6.2 30 1016.9 27 16.8 24.5 35.6 93.1 83.4 285.7
08 09:00 13.9 84 10.07 11.3 15 1013.8 4 22.7 28.3 45.8 120.5 118.2 407.9
07 09:00 16.8 68 9.72 10.9 7 1009.7 0.1 21.8 26.7 42.6 111.9 108.9 375.5
06 09:00 14.6 75 9.39 10.2 11 1020.8 0 21.2 27.2 42.9 112.7 108.5 374.0
05 09:00 12.4 74 8.09 7.9 7 1027.5 0 18.6 26.0 39.1 102.3 94.5 324.5
04 09:00 12.8 79 8.85 9.3 0 1029.9 0 20.2 27.2 42.1 110.3 104.5 359.4
03 09:00 13.9 67 8.03 7.9 0 1027.6 0.2 18.4 25.5 38.1 99.7 91.9 315.7
02 09:00 15 84 10.77 12.3 11 1018.6 4 24.2 29.4 48.4 127.3 126.7 437.7
01 09:00 13.4 81 9.42 10.3 26 1017.7 0.6 21.4 27.5 43.6 114.4 110.4 380.3
30 09:00 11.4 71 7.29 6.3 11 1017.1 12 16.9 24.6 35.9 93.9 84.3 288.8
29 09:00 11 87 8.71 9 2 1008.5 5 20.0 26.7 41.5 109.0 103.1 354.8
28 09:00 15 85 10.9 12.6 7 1014 0 24.5 29.4 48.7 128.2 128.1 442.5
27 09:00 13.5 78 9.12 9.8 0 1024.8 0 20.7 27.3 42.6 111.8 106.7 367.5
26 09:00 16.8 80 11.44 13.4 11 1020.3 22 25.5 30.0 50.2 132.1 133.3 460.7
25 09:00 15 90 11.54 13.4 4 1016.6 0 25.8 30.6 51.6 136.0 137.5 475.3
24 09:00 15 96 12.31 14.3 0 1021 5 27.5 32.2 55.3 145.7 149.2 516.2
23 09:00 17.5 78 11.63 13.6 19 1016.2 2 25.9 29.9 50.4 132.6 134.3 464.4
22 09:00 14.5 96 11.94 13.8 0 1022 0 26.7 31.7 54.0 142.3 144.9 500.8
21 09:00 18.2 63 9.79 11 33 1016 0 21.9 26.6 42.4 111.4 108.4 373.9
20 09:00 16.6 64 9.04 9.8 11 1013.5 0.2 20.4 25.8 40.1 105.4 100.6 346.5
19 09:00 14 84 10.13 11.4 0 1014.4 7 22.9 28.4 46.1 121.1 119.0 410.5
18 09:00 14.8 91 11.53 13.4 4 1018.9 0.6 25.8 30.8 51.8 136.5 138.0 476.9
17 09:00 15.7 66 8.83 9.4 11 1020.7 0 20.0 26.0 40.1 105.2 99.6 342.9
16 09:00 17.3 93 13.7 16.1 11 1016.1 0.2 30.3 33.6 59.6 157.3 164.6 570.0
15 09:00 20.7 98 17.64 20.4 26 1015.5 0 38.5 39.6 75.2 198.7 216.6 751.6
14 09:00 19 96 15.64 18.4 11 1020.8 0 34.3 36.7 67.5 178.2 190.6 661.0
13 09:00 16.1 69 9.46 10.5 7 1020 0 21.3 26.9 42.4 111.3 107.3 369.9
12 09:00 15.1 57 7.35 6.8 2 1023.4 0 16.9 23.9 34.8 90.9 81.6 279.8
11 09:00 17 59 8.54 8.9 15 1018.3 0 19.3 25.1 38.2 100.2 94.1 323.7
10 09:00 19 76 12.38 14.7 15 1019.7 0.2 27.3 30.8 52.7 139.0 142.4 493.0
09 09:00 16 75 10.22 11.6 4 1025.7 0 22.9 28.4 45.8 120.3 118.2 407.9
08 09:00 16.2 66 9.1 9.9 22 1025.7 0.1 20.5 26.5 41.1 107.9 102.9 354.5
07 09:00 15.6 94 12.5 14.6 4 1024.2 3 27.8 32.4 55.9 147.2 151.2 523.2
06 09:00 16 83 11.31 13.1 0 1023.4 0.4 25.2 30.1 50.3 132.4 133.1 460.2
05 09:00 14.5 84 10.45 11.9 7 1016.7 1 23.5 28.9 47.2 124.2 122.9 424.1
04 09:00 14.7 66 8.31 8.4 22 1010.5 11 18.9 25.1 38.1 99.9 93.3 320.7
03 09:00 15.5 96 12.69 14.8 2 1003.2 0 28.3 31.9 55.7 147.0 151.8 525.4
02 09:00 14.7 93 11.71 13.6 0 1012.6 0 26.2 30.9 52.4 138.0 140.1 484.3
01 09:00 17.1 80 11.64 13.6 4 1014.1 0 25.9 30.0 50.6 133.2 134.9 466.5
31 09:00 15 100 12.82 15 0 1018.8 0 28.6 33.0 57.5 151.6 156.6 541.9

Last Refresh: 13-Jul-2020 08:54:52

Most of the information presented on this site is sourced from the Bureau of Meteorology.  Copyright in all material sourced from the Bureau of Meteorology resides with the Commonwealth of Australia.